My Meet Scores
Kylie Wagner, Oak Lawn Pirouette's Gymnastics - MyMeetScores.com
Top100 | Top Teams | Upcoming Meets | Completed Meets | Latest | Add Scores | Help| Support | Bookmark and Share

Kylie Wagner, Oak Lawn Pirouette's Gymnastics
Personal Bests
LevelVault BarsBeamFloorAA
48.6508.775 9.0508.75034.950
58.8008.950 8.9758.75034.725
68.6508.700 8.8509.12535.300
79.4509.075 8.5509.35036.100
Meet Scores
Date Meet Team Session Level Division Vault Bars Beam Floor AA
2021-04-09 Illinois Level 7 8 State Championships Oak Lawn Pirouettes Gymnastics 3 7 Sr B 8.950 18 7.650 33 8.250 31 9.350 17T 34.200 30T
2021-02-26 Kinetic Classic 2021 Oak Lawn Pirouette's Gymnastics 13 7 Older 9.450 6T 9.075 9T 8.550 18 9.025 20 36.100 15
2021-02-19 BIG Classic 2021 Oak Lawn Pirouette's Gymnastics 8A 7 Junior C 8.950 6 8.875 6 7.650 12 8.600 13 34.075 10
2020-02-14 Midwest Open Oak Lawn Pirouette's Gymnastics 07B 6 Senior A 8.275 16 8.650 10 8.450 16T 9.025 12 34.400 14
2020-01-31 Big Chill Oak Lawn Pirouette's Gymnastics 1 6 12+ 8.625 2 8.700 11 8.850 10 9.125 10 35.300 10T
2020-01-24 Uga Invitational Oak Lawn Pirouette's Gymnastics 6A 6 Sr A 8.475 12 8.625 5 8.750 14 8.900 14T 34.750 12
2020-01-10 St Jude Benefit Meet Oak Lawn Pirouette's Gymnastics 2B 6 Sr A 8.475 18 8.650 10T 8.450 16 8.950 15T 34.525 15
2019-12-20 2019 Women's Hawaiian Pineapple Classic Oak Lawn Pirouette's Gymnastics 3A 6 Age 12 8.650 10 7.700 11 6.950 13 9.125 6 32.425 13
2019-11-08 Illinois Judges Cup Oak Lawn Pirouette's Gymnastics P1 6 All Ages 8.600 34T 8.150 33T 8.350 41 8.800 43T 33.900 39T
2019-03-22 Illinois Gymnastics State Championships Oak Lawn Pirouette's Gymnastics 1 5 JR E 8.800 20T 8.950 8T 8.050 23 8.750 20 34.550 20
2019-02-23 Kinetic Classic 2019 Oak Lawn Pirouette's Gymnastics 1 5 Middle 7.950 18 8.850 3 8.400 16 8.625 8 33.825 11
2019-02-01 The Big Chill Oak Lawn Pirouette's Gymnastics 1 5 11 & up 0.000 1 8.675 2 8.825 1T 8.575 5T 34.725 1
2019-01-25 UGA Invitational Oak Lawn Pirouette's Gymnastics A09 5 Sr A 7.900 14 8.550 10T 8.975 7 8.250 9T 33.675 12
2019-01-11 St Jude Benefit Meet Oak Lawn Pirouette's Gymnastics 8A 5 Sr A 8.550 19T 8.650 9 8.450 15T 8.500 17 34.150 14T
2018-12-14 Hawaiian Pineapple Classic Oak Lawn Pirouette's Gymnastics 4B 5 Age11 8.300 11T 8.800 2 8.800 6 8.400 11 34.300 3T
2018-03-08 Level 4 & 5 State Oak Lawn Pirouette's Gymnastics All 4 Yh F 8.425 21T 8.775 10 8.625 23 8.750 19 34.575 16
2018-02-17 Women's Midwest Open Oak Lawn Pirouette's Gymnastics 14 4 Jr B 8.000 16 8.450 12 8.200 10 8.650 11 33.300 12
2018-02-01 The Big Chill Oak Lawn Pirouette's Gymnastics 4 4 10 yr olds 8.200 8T 8.750 8 8.750 6 8.725 6 34.425 7
2018-01-26 2018 UGA Classic Oak Lawn Pirouette's Gymnastics AA1 4 Jr C 8.650 9 8.750 10 9.050 14 8.500 17 34.950 11
2017-12-14 2017 Women's Hawaiian Pineapple Classic Oak Lawn Pirouette's Gymnastics 6A 4 Age10 8.175 10 8.250 11T 7.650 16T 8.425 9 32.500 12
2017-11-10 Illinois NAWGJ Judges Cup 2017 Oak Lawn Pirouette's Gymnastics G2 4 All Ages 7.700 61 8.325 34 7.150 56 7.550 57 30.725 54
Get your scores on
a t-shirt, pin, or hoodie